Time;durP1;ratioP1;P1;durP2;ratioP2;P2;SDS_P1;SDS_P2;PMS_P1;PMS_P2;Temp;Humidity;BMP_temperature;BMP_pressure;BME280_temperature;BME280_humidity;BME280_pressure;Samples;Min_cycle;Max_cycle;Signal;HPM_P1;HPM_P2
2023/10/30 00:01:01;;;;;;;12.43;2.08;;;10.40;99.90;;;;;;5013735;28;20046;-61
2023/10/30 00:03:29;;;;;;;14.93;3.03;;;10.40;99.90;;;;;;5013601;28;20045;-61
2023/10/30 00:05:56;;;;;;;18.50;2.80;;;10.40;99.90;;;;;;5012978;28;20507;-61
2023/10/30 00:08:24;;;;;;;15.25;2.70;;;10.40;99.90;;;;;;5028460;28;20061;-61
2023/10/30 00:10:51;;;;;;;17.25;2.72;;;10.40;99.90;;;;;;5013306;28;20041;-61
2023/10/30 00:13:18;;;;;;;16.58;2.58;;;10.40;99.90;;;;;;5013534;28;20111;-61
2023/10/30 00:15:44;;;;;;;18.23;2.85;;;10.40;99.90;;;;;;5013310;28;20041;-61
2023/10/30 00:18:11;;;;;;;16.55;2.60;;;10.40;99.90;;;;;;5028432;28;20052;-61
2023/10/30 00:20:38;;;;;;;15.93;2.58;;;10.40;99.90;;;;;;5013268;28;20042;-61
2023/10/30 00:23:05;;;;;;;16.40;2.97;;;10.40;99.90;;;;;;5013226;28;20034;-61
2023/10/30 00:25:32;;;;;;;13.48;2.67;;;10.40;99.90;;;;;;5013458;28;20056;-60
2023/10/30 00:28:00;;;;;;;19.90;2.65;;;10.40;99.90;;;;;;5013482;28;20037;-60
2023/10/30 00:30:27;;;;;;;17.73;2.70;;;10.40;99.90;;;;;;5013092;28;20046;-60
2023/10/30 00:32:54;;;;;;;19.58;2.55;;;10.40;99.90;;;;;;4996266;28;20076;-63
2023/10/30 00:35:21;;;;;;;13.30;2.38;;;10.40;99.90;;;;;;5013527;28;20391;-61
2023/10/30 00:37:47;;;;;;;20.27;3.10;;;10.40;99.90;;;;;;5012704;28;20054;-53
2023/10/30 00:40:15;;;;;;;14.57;2.88;;;10.40;99.90;;;;;;5013052;28;20085;-60
2023/10/30 00:42:41;;;;;;;15.27;2.28;;;10.40;99.90;;;;;;5012916;28;20038;-60
2023/10/30 00:45:08;;;;;;;18.55;3.45;;;10.40;99.90;;;;;;5013049;28;20490;-60
2023/10/30 00:47:38;;;;;;;14.32;2.30;;;10.40;99.90;;;;;;5012935;28;20034;-60
2023/10/30 00:50:05;;;;;;;17.02;2.95;;;10.40;99.90;;;;;;5013189;28;20077;-61
2023/10/30 00:52:32;;;;;;;15.65;2.65;;;10.40;99.90;;;;;;5013312;28;20049;-60
2023/10/30 00:54:58;;;;;;;13.75;2.53;;;10.40;99.90;;;;;;5012547;28;20038;-60
2023/10/30 00:57:25;;;;;;;16.25;3.17;;;10.50;99.90;;;;;;4995015;28;20096;-60
2023/10/30 00:59:53;;;;;;;15.20;2.50;;;10.50;99.90;;;;;;5012856;28;20042;-61
2023/10/30 01:02:20;;;;;;;26.13;3.22;;;10.50;99.90;;;;;;5012921;28;20042;-61
2023/10/30 01:04:47;;;;;;;19.20;2.83;;;10.50;99.90;;;;;;5011314;28;20462;-61
2023/10/30 01:07:14;;;;;;;16.00;2.70;;;10.50;99.90;;;;;;4995288;28;20072;-55
2023/10/30 01:09:41;;;;;;;20.70;3.13;;;10.50;99.90;;;;;;5012244;28;20372;-51
2023/10/30 01:12:08;;;;;;;18.30;3.20;;;10.50;99.90;;;;;;5012556;28;20570;-54
2023/10/30 01:14:35;;;;;;;17.35;3.65;;;10.50;99.90;;;;;;5012686;28;20100;-56
2023/10/30 01:17:02;;;;;;;23.20;3.55;;;10.40;99.90;;;;;;5012834;28;20040;-55
2023/10/30 01:19:29;;;;;;;17.48;2.70;;;10.40;99.90;;;;;;4998184;28;20048;-55
2023/10/30 01:21:55;;;;;;;21.98;3.10;;;10.40;99.90;;;;;;5016829;28;20048;-55
2023/10/30 01:24:23;;;;;;;21.63;3.28;;;10.40;99.90;;;;;;4998824;28;20034;-55
2023/10/30 01:26:50;;;;;;;17.42;3.00;;;10.40;99.90;;;;;;5016720;28;20050;-56
2023/10/30 01:29:16;;;;;;;21.65;3.28;;;10.40;99.90;;;;;;5016313;28;20038;-54
2023/10/30 01:31:43;;;;;;;20.55;2.85;;;10.40;99.90;;;;;;5016085;28;20113;-54
2023/10/30 01:34:10;;;;;;;21.45;3.72;;;10.40;99.90;;;;;;5016253;28;20100;-55
2023/10/30 01:36:37;;;;;;;17.77;3.20;;;10.40;99.90;;;;;;5016327;28;20057;-54
2023/10/30 01:39:04;;;;;;;21.85;4.55;;;10.40;99.90;;;;;;5016240;28;20056;-54
2023/10/30 01:41:31;;;;;;;19.65;3.42;;;10.40;99.90;;;;;;5016404;28;20483;-59
2023/10/30 01:43:57;;;;;;;22.35;3.55;;;10.40;99.90;;;;;;5016550;28;20490;-60
2023/10/30 01:46:24;;;;;;;19.90;3.53;;;10.40;99.90;;;;;;4997845;28;20163;-61
2023/10/30 01:48:51;;;;;;;17.13;3.35;;;10.40;99.90;;;;;;5015875;28;20037;-61
2023/10/30 01:51:19;;;;;;;17.77;2.95;;;10.50;99.90;;;;;;5031097;28;20037;-60
2023/10/30 01:53:46;;;;;;;16.67;3.53;;;10.40;99.90;;;;;;5015496;28;20045;-61
2023/10/30 01:56:13;;;;;;;15.85;2.55;;;10.40;99.90;;;;;;5015835;28;20072;-60
2023/10/30 01:58:40;;;;;;;21.23;3.00;;;10.50;99.90;;;;;;5015625;28;20053;-61
2023/10/30 02:01:06;;;;;;;22.48;3.78;;;10.50;99.90;;;;;;4998154;28;20479;-60
2023/10/30 02:03:33;;;;;;;20.83;3.55;;;10.50;99.90;;;;;;5016174;28;20395;-62
2023/10/30 02:06:01;;;;;;;17.88;3.22;;;10.50;99.90;;;;;;4998103;28;20440;-61
2023/10/30 02:08:28;;;;;;;23.60;2.88;;;10.50;99.90;;;;;;5015588;28;20060;-61
2023/10/30 02:10:55;;;;;;;18.08;2.60;;;10.40;99.90;;;;;;5014814;28;20467;-61
2023/10/30 02:13:21;;;;;;;18.65;2.85;;;10.40;99.90;;;;;;4998126;28;20041;-55
2023/10/30 02:15:48;;;;;;;15.00;2.83;;;10.40;99.90;;;;;;5015885;28;20403;-56
2023/10/30 02:18:15;;;;;;;16.40;3.63;;;10.40;99.90;;;;;;4998006;28;20070;-56
2023/10/30 02:20:42;;;;;;;16.95;3.08;;;10.40;99.90;;;;;;5015391;28;20038;-54
2023/10/30 02:23:09;;;;;;;22.33;4.55;;;10.50;99.90;;;;;;5015185;28;20050;-56
2023/10/30 02:25:36;;;;;;;22.48;4.40;;;10.40;99.90;;;;;;5015318;28;20068;-56
2023/10/30 02:28:02;;;;;;;16.63;2.88;;;10.40;99.90;;;;;;5014945;28;20038;-56
2023/10/30 02:30:29;;;;;;;18.52;2.83;;;10.40;99.90;;;;;;5014954;28;20048;-55
2023/10/30 02:32:56;;;;;;;21.52;3.03;;;10.40;99.90;;;;;;5015327;28;20030;-54
2023/10/30 02:35:23;;;;;;;16.15;3.13;;;10.40;99.90;;;;;;5015277;28;20161;-55
2023/10/30 02:37:50;;;;;;;31.88;3.17;;;10.40;99.90;;;;;;5015019;28;20053;-53
2023/10/30 02:40:17;;;;;;;20.35;3.13;;;10.40;99.90;;;;;;5014925;28;20112;-62
2023/10/30 02:42:44;;;;;;;20.30;3.13;;;10.40;99.90;;;;;;5015161;28;20048;-62
2023/10/30 02:45:11;;;;;;;21.02;3.42;;;10.40;99.90;;;;;;5015377;28;20049;-62
2023/10/30 02:47:37;;;;;;;21.00;3.70;;;10.50;99.90;;;;;;5015118;28;20402;-63
2023/10/30 02:50:04;;;;;;;20.65;3.08;;;10.50;99.90;;;;;;5015019;28;20546;-62
2023/10/30 02:52:32;;;;;;;19.65;3.67;;;10.60;99.90;;;;;;5014915;28;20509;-62
2023/10/30 02:54:59;;;;;;;18.20;3.05;;;10.60;99.90;;;;;;5029414;28;20042;-62
2023/10/30 02:57:26;;;;;;;25.27;3.88;;;10.60;99.90;;;;;;5014457;28;20042;-62
2023/10/30 02:59:53;;;;;;;14.63;2.60;;;10.60;99.90;;;;;;5029887;28;20046;-62
2023/10/30 03:02:19;;;;;;;20.90;3.78;;;10.60;99.90;;;;;;4996942;28;20038;-62
2023/10/30 03:04:46;;;;;;;13.75;2.55;;;10.70;99.90;;;;;;5014923;28;20046;-62
2023/10/30 03:07:15;;;;;;;23.30;3.42;;;10.70;99.90;;;;;;5029757;28;20497;-54
2023/10/30 03:09:42;;;;;;;15.52;2.70;;;10.70;99.90;;;;;;5014665;28;20490;-53
2023/10/30 03:12:09;;;;;;;20.98;4.03;;;10.70;99.90;;;;;;5014688;28;20478;-56
2023/10/30 03:14:36;;;;;;;24.77;3.30;;;10.80;99.90;;;;;;5014354;28;20490;-57
2023/10/30 03:17:03;;;;;;;23.27;3.38;;;10.70;99.90;;;;;;4996812;28;20052;-57
2023/10/30 03:19:30;;;;;;;21.98;3.28;;;10.70;99.90;;;;;;4996901;28;20475;-55
2023/10/30 03:21:57;;;;;;;25.42;3.90;;;10.70;99.90;;;;;;5014173;28;20049;-53
2023/10/30 03:24:24;;;;;;;25.60;3.55;;;10.60;99.90;;;;;;4996311;28;20490;-57
2023/10/30 03:26:51;;;;;;;24.52;3.58;;;10.60;99.90;;;;;;5014306;28;20117;-57
2023/10/30 03:29:18;;;;;;;24.52;3.90;;;10.60;99.90;;;;;;5014029;28;20042;-55
2023/10/30 03:31:44;;;;;;;18.23;3.13;;;10.60;99.90;;;;;;5014477;28;20057;-56
2023/10/30 03:34:11;;;;;;;18.63;3.55;;;10.60;99.90;;;;;;4996231;28;20050;-57
2023/10/30 03:36:38;;;;;;;18.08;3.17;;;10.50;99.90;;;;;;4988793;28;20514;-51
2023/10/30 03:39:07;;;;;;;21.75;3.20;;;10.50;99.90;;;;;;4973631;28;20047;-51
2023/10/30 03:41:34;;;;;;;19.17;2.90;;;10.50;99.90;;;;;;4974167;28;20043;-62
2023/10/30 03:44:01;;;;;;;24.55;2.97;;;10.40;99.90;;;;;;4973977;28;20051;-50
2023/10/30 03:46:30;;;;;;;15.38;3.22;;;10.40;99.90;;;;;;4973775;28;20138;-54
2023/10/30 03:48:57;;;;;;;19.20;3.15;;;10.40;99.90;;;;;;4974791;28;20089;-53
2023/10/30 03:51:25;;;;;;;25.02;4.10;;;10.40;99.90;;;;;;4974719;28;20038;-52
2023/10/30 03:53:52;;;;;;;13.73;2.72;;;10.40;99.90;;;;;;4974310;28;20427;-51
2023/10/30 03:56:19;;;;;;;23.00;3.45;;;10.30;99.90;;;;;;4974712;28;20051;-55
2023/10/30 03:58:46;;;;;;;15.07;3.20;;;10.30;99.90;;;;;;4974614;28;20056;-52
2023/10/30 04:01:12;;;;;;;17.30;3.00;;;10.30;99.90;;;;;;4974744;28;20046;-57
2023/10/30 04:03:39;;;;;;;18.88;3.65;;;10.20;99.90;;;;;;4974777;28;20130;-54
2023/10/30 04:06:06;;;;;;;20.67;3.83;;;10.20;99.90;;;;;;4974720;28;20097;-54
2023/10/30 04:08:33;;;;;;;21.17;3.53;;;10.30;99.90;;;;;;4974661;28;20047;-51
2023/10/30 04:11:01;;;;;;;14.90;3.22;;;10.20;99.90;;;;;;4974683;28;20046;-55
2023/10/30 04:13:28;;;;;;;18.27;3.47;;;10.20;99.90;;;;;;4974698;28;20043;-53
2023/10/30 04:15:55;;;;;;;18.23;2.63;;;10.20;99.90;;;;;;4974300;28;20047;-55
2023/10/30 04:18:21;;;;;;;18.77;3.38;;;10.10;99.90;;;;;;4974108;28;20070;-55
2023/10/30 04:20:48;;;;;;;21.80;3.95;;;10.20;99.90;;;;;;4974688;28;20113;-54
2023/10/30 04:23:15;;;;;;;21.45;4.00;;;10.10;99.90;;;;;;4974478;28;20070;-62
2023/10/30 04:25:42;;;;;;;17.90;2.85;;;10.10;99.90;;;;;;4974463;28;20051;-62
2023/10/30 04:28:09;;;;;;;25.58;3.60;;;10.10;99.90;;;;;;4974202;28;20050;-62
2023/10/30 04:30:36;;;;;;;17.73;2.97;;;10.10;99.90;;;;;;4974302;28;20047;-62
2023/10/30 04:33:03;;;;;;;21.80;3.17;;;10.10;99.90;;;;;;4974279;28;20145;-62
2023/10/30 04:35:29;;;;;;;22.73;3.20;;;10.10;99.90;;;;;;4973960;28;20431;-62
2023/10/30 04:37:56;;;;;;;17.33;3.10;;;10.10;99.90;;;;;;4990713;28;20050;-62
2023/10/30 04:40:23;;;;;;;25.48;3.03;;;10.10;99.90;;;;;;5013684;28;20046;-62
2023/10/30 04:42:50;;;;;;;20.17;2.88;;;10.10;99.90;;;;;;5006757;28;20093;-62
2023/10/30 04:45:17;;;;;;;19.42;3.70;;;10.10;99.90;;;;;;5006815;28;20042;-63
2023/10/30 04:47:43;;;;;;;20.38;3.30;;;10.10;99.90;;;;;;5006681;28;20100;-62
2023/10/30 04:50:10;;;;;;;32.50;3.03;;;10.10;99.90;;;;;;5013261;28;20129;-62
2023/10/30 04:52:37;;;;;;;17.02;3.45;;;10.10;99.90;;;;;;5014781;28;20050;-62
2023/10/30 04:55:04;;;;;;;22.15;3.58;;;10.10;99.90;;;;;;5016670;28;20045;-62
2023/10/30 04:57:31;;;;;;;22.52;3.63;;;10.10;99.90;;;;;;5017009;28;20124;-62
2023/10/30 04:59:58;;;;;;;17.02;2.95;;;10.10;99.90;;;;;;5032141;28;20042;-62
2023/10/30 05:02:25;;;;;;;25.20;3.65;;;10.10;99.90;;;;;;5016854;28;20125;-62
2023/10/30 05:04:52;;;;;;;18.35;3.10;;;10.10;99.90;;;;;;5017136;28;20054;-54
2023/10/30 05:07:18;;;;;;;17.98;3.42;;;10.20;99.90;;;;;;5016820;28;20107;-55
2023/10/30 05:09:45;;;;;;;20.65;3.05;;;10.20;99.90;;;;;;5016754;28;20034;-53
2023/10/30 05:12:12;;;;;;;21.98;2.75;;;10.10;99.90;;;;;;5016771;28;20121;-54
2023/10/30 05:14:39;;;;;;;22.00;3.03;;;10.20;99.90;;;;;;5032152;28;20050;-56
2023/10/30 05:17:06;;;;;;;20.60;3.15;;;10.10;99.90;;;;;;5016621;28;20120;-53
2023/10/30 05:19:32;;;;;;;30.55;3.72;;;10.10;99.90;;;;;;5016514;28;20096;-53
2023/10/30 05:21:59;;;;;;;27.58;3.78;;;10.10;99.90;;;;;;5016932;28;20145;-54
2023/10/30 05:24:26;;;;;;;22.48;2.88;;;10.20;99.90;;;;;;5016464;28;20046;-54
2023/10/30 05:26:53;;;;;;;20.67;3.92;;;10.20;99.90;;;;;;5016451;28;20128;-53
2023/10/30 05:29:20;;;;;;;20.90;3.30;;;10.20;99.90;;;;;;5016198;28;20463;-56
2023/10/30 05:31:47;;;;;;;20.25;3.95;;;10.20;99.90;;;;;;5016639;28;20133;-54
2023/10/30 05:34:14;;;;;;;19.45;2.90;;;10.20;99.90;;;;;;5016199;28;20121;-54
2023/10/30 05:36:40;;;;;;;18.40;3.00;;;10.10;99.90;;;;;;5016053;28;20046;-56
2023/10/30 05:39:07;;;;;;;23.23;3.13;;;10.10;99.90;;;;;;5016080;28;20042;-55
2023/10/30 05:41:34;;;;;;;18.45;2.95;;;10.10;99.90;;;;;;5016433;28;20088;-56
2023/10/30 05:44:01;;;;;;;21.45;2.80;;;10.10;99.90;;;;;;5015922;28;20490;-53
2023/10/30 05:46:28;;;;;;;17.33;3.40;;;10.10;99.90;;;;;;5016186;28;20108;-61
2023/10/30 05:48:55;;;;;;;18.65;3.30;;;10.00;99.90;;;;;;5015847;28;20042;-61
2023/10/30 05:51:21;;;;;;;19.60;2.80;;;10.00;99.90;;;;;;5016002;28;20494;-61
2023/10/30 05:53:50;;;;;;;18.48;3.75;;;10.00;99.90;;;;;;5015908;28;20458;-61
2023/10/30 05:56:17;;;;;;;22.00;3.38;;;10.00;99.90;;;;;;5015229;28;20069;-61
2023/10/30 05:58:44;;;;;;;16.23;3.58;;;10.00;99.90;;;;;;5015743;28;20050;-61
2023/10/30 06:01:10;;;;;;;17.75;3.22;;;10.00;99.90;;;;;;5015783;28;20045;-61
2023/10/30 06:03:37;;;;;;;23.70;3.65;;;10.00;99.90;;;;;;5015335;28;20041;-61
2023/10/30 06:06:04;;;;;;;24.10;3.17;;;10.10;99.90;;;;;;5015988;28;20049;-61
2023/10/30 06:08:31;;;;;;;19.77;3.10;;;10.10;99.90;;;;;;5015683;28;20049;-61
2023/10/30 06:10:58;;;;;;;24.60;3.80;;;10.10;99.90;;;;;;5015774;28;20049;-61
2023/10/30 06:13:24;;;;;;;17.95;3.28;;;10.10;99.90;;;;;;4997869;28;20130;-61
2023/10/30 06:15:51;;;;;;;21.15;3.08;;;10.10;99.90;;;;;;5015851;28;20044;-61
2023/10/30 06:18:18;;;;;;;22.90;3.60;;;10.10;99.90;;;;;;5015430;28;20042;-62
2023/10/30 06:20:45;;;;;;;22.67;4.50;;;10.10;99.90;;;;;;5015627;28;20076;-61
2023/10/30 06:23:12;;;;;;;23.05;3.38;;;10.20;99.90;;;;;;5015334;28;20570;-62
2023/10/30 06:25:39;;;;;;;29.23;3.70;;;10.20;99.90;;;;;;5030492;28;20072;-61
2023/10/30 06:28:08;;;;;;;18.98;2.88;;;10.20;99.90;;;;;;5015203;28;20037;-55
2023/10/30 06:30:36;;;;;;;15.27;2.60;;;10.20;99.90;;;;;;5015294;28;20038;-53
2023/10/30 06:33:02;;;;;;;19.20;3.17;;;10.20;99.90;;;;;;5015367;28;20034;-55
2023/10/30 06:35:29;;;;;;;20.05;3.08;;;10.20;99.90;;;;;;5015352;28;20076;-62
2023/10/30 06:37:56;;;;;;;18.05;2.88;;;10.30;99.90;;;;;;5014934;28;20409;-61
2023/10/30 06:40:23;;;;;;;21.70;2.97;;;10.30;99.90;;;;;;5015255;28;20467;-61
2023/10/30 06:42:50;;;;;;;19.65;3.03;;;10.30;99.90;;;;;;5015200;28;20096;-61
2023/10/30 06:45:16;;;;;;;18.90;2.95;;;10.30;99.90;;;;;;5015144;28;20050;-62
2023/10/30 06:47:44;;;;;;;18.48;3.45;;;10.40;99.90;;;;;;5014959;28;20478;-55
2023/10/30 06:50:11;;;;;;;24.02;3.40;;;10.40;99.90;;;;;;5014776;28;20100;-54
2023/10/30 06:52:38;;;;;;;21.20;2.90;;;10.40;99.90;;;;;;5014783;28;20088;-55
2023/10/30 06:55:05;;;;;;;18.08;2.65;;;10.40;99.90;;;;;;5014549;28;20041;-56
2023/10/30 06:57:31;;;;;;;12.15;2.63;;;10.40;99.90;;;;;;5014883;28;20066;-62
2023/10/30 06:59:58;;;;;;;19.88;3.03;;;10.50;99.90;;;;;;5014673;28;20438;-62
2023/10/30 07:02:25;;;;;;;16.75;3.00;;;10.50;99.90;;;;;;5014692;28;20069;-62
2023/10/30 07:04:52;;;;;;;14.82;2.70;;;10.50;99.90;;;;;;5014758;28;20049;-62
2023/10/30 07:07:19;;;;;;;18.42;3.03;;;10.50;99.90;;;;;;5014468;28;20045;-62
2023/10/30 07:09:46;;;;;;;15.98;3.40;;;10.50;99.90;;;;;;5014470;28;20106;-54
2023/10/30 07:12:13;;;;;;;14.75;2.55;;;10.50;99.90;;;;;;5014660;28;20486;-56
2023/10/30 07:14:40;;;;;;;18.25;3.15;;;10.50;99.90;;;;;;5014456;28;20042;-56
2023/10/30 07:17:07;;;;;;;14.00;2.80;;;10.50;99.90;;;;;;4996209;28;20351;-55
2023/10/30 07:19:33;;;;;;;16.20;2.60;;;10.60;99.90;;;;;;5014206;28;20493;-54
2023/10/30 07:22:04;;;;;;;16.67;3.10;;;10.60;99.90;;;;;;5014305;28;20124;-52
2023/10/30 07:24:30;;;;;;;18.65;3.22;;;10.60;99.90;;;;;;5014627;28;20042;-56
2023/10/30 07:26:58;;;;;;;18.33;3.65;;;10.60;99.90;;;;;;5014349;28;20045;-56
2023/10/30 07:29:25;;;;;;;16.30;2.58;;;10.60;99.90;;;;;;5013754;28;20068;-56
2023/10/30 07:31:51;;;;;;;15.85;3.00;;;10.60;99.90;;;;;;5014062;28;20041;-56
2023/10/30 07:34:18;;;;;;;13.30;2.83;;;10.60;99.90;;;;;;5014064;28;20045;-62
2023/10/30 07:36:45;;;;;;;19.95;3.00;;;10.60;99.90;;;;;;5013949;28;20046;-62
2023/10/30 07:39:12;;;;;;;18.38;2.95;;;10.60;99.90;;;;;;5013842;28;20037;-62
2023/10/30 07:41:39;;;;;;;16.02;3.05;;;10.70;99.90;;;;;;5028989;28;20065;-62
2023/10/30 07:44:08;;;;;;;18.20;3.40;;;10.70;99.90;;;;;;4996393;28;20045;-62
2023/10/30 07:46:35;;;;;;;13.80;3.05;;;10.70;99.90;;;;;;5013345;28;20045;-62
2023/10/30 07:49:03;;;;;;;18.60;2.58;;;10.80;99.90;;;;;;5013823;28;20041;-62
2023/10/30 07:51:29;;;;;;;15.35;2.88;;;10.80;99.90;;;;;;5014078;28;20399;-62
2023/10/30 07:53:57;;;;;;;16.25;3.72;;;10.80;99.90;;;;;;5013991;28;20096;-62
2023/10/30 07:56:24;;;;;;;14.70;3.25;;;10.80;99.90;;;;;;5013792;28;20046;-62
2023/10/30 07:58:51;;;;;;;19.35;3.47;;;10.80;99.90;;;;;;5013965;28;20092;-61
2023/10/30 08:01:20;;;;;;;15.70;3.08;;;10.80;99.90;;;;;;5013654;28;20052;-61
2023/10/30 08:03:47;;;;;;;17.73;3.20;;;10.90;99.90;;;;;;5013509;28;20100;-61
2023/10/30 08:06:14;;;;;;;16.55;2.72;;;10.90;99.90;;;;;;5013882;28;20042;-62
2023/10/30 08:08:41;;;;;;;26.85;3.50;;;11.00;99.90;;;;;;5013656;28;20038;-62
2023/10/30 08:11:09;;;;;;;23.88;3.63;;;11.00;99.90;;;;;;5013671;28;20501;-61
2023/10/30 08:13:37;;;;;;;27.40;4.47;;;11.10;99.90;;;;;;5018222;28;20053;-55
2023/10/30 08:16:04;;;;;;;23.48;3.53;;;11.20;99.90;;;;;;5010485;28;20093;-55
2023/10/30 08:18:31;;;;;;;19.65;4.00;;;11.30;99.90;;;;;;5013541;28;20124;-55
2023/10/30 08:20:59;;;;;;;18.98;3.92;;;11.30;99.90;;;;;;5013565;28;20085;-53
2023/10/30 08:23:36;;;;;;;;;;;11.40;99.90;;;;;;5014140;28;20046;-55
2023/10/30 08:26:04;;;;;;;22.45;3.50;;;11.40;99.90;;;;;;5013445;28;20011;-56
2023/10/30 08:28:31;;;;;;;17.92;3.85;;;11.50;99.90;;;;;;5013067;28;20368;-56
2023/10/30 08:30:58;;;;;;;18.15;3.80;;;11.50;99.90;;;;;;5013418;28;20042;-54
2023/10/30 08:33:24;;;;;;;16.80;3.72;;;11.50;99.90;;;;;;5013165;28;20058;-54
2023/10/30 08:35:51;;;;;;;15.50;2.75;;;11.50;99.90;;;;;;5013459;28;20049;-56
2023/10/30 08:38:18;;;;;;;18.35;3.05;;;11.50;99.90;;;;;;5013044;28;20108;-56
2023/10/30 08:40:46;;;;;;;10.88;2.45;;;11.50;99.90;;;;;;5010683;28;20049;-57
2023/10/30 08:43:13;;;;;;;12.27;2.38;;;11.50;99.90;;;;;;5013208;28;20073;-57
2023/10/30 08:45:40;;;;;;;12.57;2.60;;;11.50;99.90;;;;;;5010696;28;20042;-55
2023/10/30 08:48:06;;;;;;;12.13;1.90;;;11.40;99.90;;;;;;5010402;28;20034;-54
2023/10/30 08:50:45;;;;;;;7.40;1.73;;;11.40;99.90;;;;;;5012472;28;20042;-57
2023/10/30 08:53:12;;;;;;;7.25;1.70;;;11.30;99.90;;;;;;5012694;28;20483;-57
2023/10/30 08:55:38;;;;;;;9.02;1.52;;;11.30;99.90;;;;;;5012212;28;20117;-56
2023/10/30 08:58:05;;;;;;;6.95;1.75;;;11.30;99.90;;;;;;5012787;28;20066;-62
2023/10/30 09:00:32;;;;;;;6.78;1.38;;;11.20;99.90;;;;;;5012825;28;20046;-62
2023/10/30 09:02:59;;;;;;;7.22;1.65;;;11.30;99.90;;;;;;5012888;28;20436;-62
2023/10/30 09:05:26;;;;;;;5.68;1.30;;;11.20;99.90;;;;;;5012552;28;20049;-62
2023/10/30 09:07:53;;;;;;;6.97;1.23;;;11.20;99.90;;;;;;5012594;28;20052;-62
2023/10/30 09:10:26;;;;;;;8.25;1.73;;;11.10;99.90;;;;;;5012540;28;20106;-61
2023/10/30 09:12:53;;;;;;;6.82;1.38;;;11.10;99.90;;;;;;5012571;28;20469;-62
2023/10/30 09:15:20;;;;;;;7.43;1.55;;;11.00;99.90;;;;;;5012450;28;20475;-61
2023/10/30 09:17:47;;;;;;;6.07;1.45;;;11.00;99.90;;;;;;5012281;28;20040;-61
2023/10/30 09:20:14;;;;;;;4.63;1.40;;;11.00;99.90;;;;;;5012617;28;20487;-61
2023/10/30 09:22:41;;;;;;;5.97;1.30;;;10.90;99.90;;;;;;4994568;28;20101;-61
2023/10/30 09:25:07;;;;;;;6.00;1.48;;;10.90;99.90;;;;;;5012648;28;20041;-61
2023/10/30 09:27:35;;;;;;;8.23;1.70;;;10.90;99.90;;;;;;4994858;28;20072;-62
2023/10/30 09:30:03;;;;;;;4.93;1.02;;;10.80;99.90;;;;;;5012441;28;20088;-61
2023/10/30 09:32:30;;;;;;;5.72;1.52;;;10.90;99.90;;;;;;5012470;28;20053;-61
2023/10/30 09:34:59;;;;;;;6.78;2.03;;;10.80;99.90;;;;;;5012498;28;20384;-61
2023/10/30 09:37:26;;;;;;;5.50;1.30;;;10.80;99.90;;;;;;5012131;28;20088;-61
2023/10/30 09:39:53;;;;;;;3.28;1.10;;;10.80;99.90;;;;;;5014420;28;20046;-61
2023/10/30 09:42:20;;;;;;;5.75;1.65;;;10.80;99.90;;;;;;5016011;28;20050;-62
2023/10/30 09:44:46;;;;;;;8.10;1.58;;;10.70;99.90;;;;;;5015684;28;20057;-61
2023/10/30 09:47:14;;;;;;;5.00;1.52;;;10.70;99.90;;;;;;5016065;28;20042;-61
2023/10/30 09:49:40;;;;;;;6.18;1.40;;;10.70;99.90;;;;;;5015493;28;20038;-61
2023/10/30 09:52:07;;;;;;;7.20;1.17;;;10.60;99.90;;;;;;5016007;28;20060;-61
2023/10/30 09:54:34;;;;;;;5.18;1.10;;;10.60;99.90;;;;;;5015764;28;20072;-61
2023/10/30 09:57:04;;;;;;;6.45;1.17;;;10.60;99.90;;;;;;5015482;28;20038;-61
2023/10/30 09:59:31;;;;;;;6.07;1.45;;;10.60;99.90;;;;;;5015758;28;20038;-61
2023/10/30 10:01:58;;;;;;;6.18;1.25;;;10.60;99.90;;;;;;5015719;28;20042;-61
2023/10/30 10:04:25;;;;;;;5.47;1.00;;;10.60;99.90;;;;;;5015581;28;20099;-61
2023/10/30 10:06:52;;;;;;;4.55;1.10;;;10.60;99.90;;;;;;5015688;28;20529;-61
2023/10/30 10:09:20;;;;;;;5.97;1.40;;;10.60;99.90;;;;;;5015577;28;20418;-61
2023/10/30 10:11:47;;;;;;;7.43;1.50;;;10.70;99.90;;;;;;5015050;28;20049;-61
2023/10/30 10:14:14;;;;;;;7.68;1.45;;;10.70;99.90;;;;;;5016094;28;20037;-61
2023/10/30 10:16:41;;;;;;;7.22;1.40;;;10.80;99.90;;;;;;5015889;28;20042;-62
2023/10/30 10:19:08;;;;;;;6.32;1.65;;;10.80;99.90;;;;;;5019746;28;20038;-62
2023/10/30 10:21:34;;;;;;;6.50;1.13;;;11.00;99.90;;;;;;5015588;28;20056;-62
2023/10/30 10:24:01;;;;;;;6.65;1.50;;;11.10;99.90;;;;;;5015776;28;20041;-61
2023/10/30 10:26:28;;;;;;;7.53;2.05;;;11.20;99.90;;;;;;5015414;28;20399;-61
2023/10/30 10:28:55;;;;;;;8.25;1.42;;;11.20;99.90;;;;;;5015212;28;20545;-62
2023/10/30 10:31:22;;;;;;;5.85;1.30;;;11.20;99.90;;;;;;5015139;28;20037;-61
2023/10/30 10:33:49;;;;;;;5.93;1.40;;;11.20;99.90;;;;;;5015208;28;20107;-62
2023/10/30 10:36:16;;;;;;;7.00;1.23;;;11.30;99.90;;;;;;5014849;28;20042;-61
2023/10/30 10:38:43;;;;;;;6.93;1.35;;;11.30;99.90;;;;;;5014870;28;20053;-61
2023/10/30 10:41:09;;;;;;;6.40;1.42;;;11.40;99.90;;;;;;5014695;28;20049;-61
2023/10/30 10:43:36;;;;;;;9.65;1.80;;;11.30;99.90;;;;;;5014787;28;20053;-61
2023/10/30 10:46:03;;;;;;;9.32;1.65;;;11.40;99.90;;;;;;5009554;28;20414;-61
2023/10/30 10:48:30;;;;;;;6.40;1.40;;;11.40;99.90;;;;;;5014679;28;20092;-61
2023/10/30 10:50:57;;;;;;;7.40;1.65;;;11.50;99.90;;;;;;5014311;28;20041;-61
2023/10/30 10:53:24;;;;;;;5.50;1.20;;;11.50;99.90;;;;;;5013896;28;20381;-61
2023/10/30 10:55:51;;;;;;;4.22;1.00;;;11.50;99.90;;;;;;5014254;28;20391;-61
2023/10/30 10:58:18;;;;;;;6.55;1.45;;;11.40;99.90;;;;;;5004442;28;20041;-61
2023/10/30 11:00:46;;;;;;;6.05;1.55;;;11.40;99.90;;;;;;5014354;28;20046;-61
2023/10/30 11:03:13;;;;;;;4.45;0.98;;;11.40;99.90;;;;;;5014386;28;20052;-61
2023/10/30 11:05:39;;;;;;;6.13;1.00;;;11.40;99.90;;;;;;5014468;28;20141;-61
2023/10/30 11:08:06;;;;;;;5.50;1.20;;;11.40;99.90;;;;;;5014356;28;20133;-61
2023/10/30 11:10:33;;;;;;;4.07;1.35;;;11.40;99.90;;;;;;5014180;28;20448;-61
2023/10/30 11:13:00;;;;;;;7.03;1.70;;;11.40;99.90;;;;;;5014578;28;20065;-61
2023/10/30 11:15:30;;;;;;;8.57;1.45;;;11.40;99.90;;;;;;5013578;28;20045;-62
2023/10/30 11:17:57;;;;;;;7.55;1.88;;;11.40;99.90;;;;;;5014317;28;20042;-61
2023/10/30 11:20:24;;;;;;;6.38;1.30;;;11.50;99.90;;;;;;5014019;28;20133;-61
2023/10/30 11:22:51;;;;;;;6.88;1.50;;;11.60;99.90;;;;;;5014161;28;20049;-61
2023/10/30 11:25:18;;;;;;;6.18;1.40;;;11.60;99.90;;;;;;4996229;28;20046;-61
2023/10/30 11:27:44;;;;;;;5.55;1.35;;;11.60;99.90;;;;;;5013671;28;20041;-62
2023/10/30 11:30:11;;;;;;;9.63;1.50;;;11.60;99.90;;;;;;5013858;28;20042;-62
2023/10/30 11:32:38;;;;;;;5.80;1.40;;;11.70;99.90;;;;;;5013998;28;20042;-62
2023/10/30 11:35:05;;;;;;;3.42;1.00;;;11.70;99.90;;;;;;5013718;28;20048;-62
2023/10/30 11:37:33;;;;;;;4.25;1.00;;;11.80;99.90;;;;;;5013408;28;20125;-62
2023/10/30 11:40:02;;;;;;;5.25;1.00;;;11.80;99.90;;;;;;5013306;28;20438;-62
2023/10/30 11:42:30;;;;;;;7.28;1.45;;;11.90;99.90;;;;;;5013777;28;20042;-62
2023/10/30 11:44:57;;;;;;;4.45;1.10;;;12.00;99.90;;;;;;5013629;28;20128;-62
2023/10/30 11:47:24;;;;;;;6.38;1.30;;;12.00;99.90;;;;;;5028769;28;20057;-62
2023/10/30 11:49:51;;;;;;;5.90;1.42;;;12.10;99.90;;;;;;5013790;28;20125;-56
2023/10/30 11:52:18;;;;;;;4.95;1.35;;;12.20;99.90;;;;;;5013135;28;20491;-54
2023/10/30 11:54:44;;;;;;;6.38;1.27;;;12.20;99.90;;;;;;5013649;28;20050;-56
2023/10/30 11:57:11;;;;;;;5.03;1.45;;;12.20;99.90;;;;;;5013358;28;20049;-55
2023/10/30 11:59:38;;;;;;;5.20;1.38;;;12.30;99.90;;;;;;5013480;28;20034;-55
2023/10/30 12:02:05;;;;;;;7.65;1.30;;;12.30;99.90;;;;;;5012762;28;20049;-51
2023/10/30 12:04:35;;;;;;;4.75;1.27;;;12.40;99.90;;;;;;5013676;28;20128;-62
2023/10/30 12:07:04;;;;;;;9.35;1.73;;;12.40;99.90;;;;;;5013529;28;20045;-62
2023/10/30 12:09:31;;;;;;;8.10;1.80;;;12.50;99.90;;;;;;5013154;28;20145;-64
2023/10/30 12:11:58;;;;;;;8.15;1.75;;;12.50;99.90;;;;;;5013387;28;20384;-62
2023/10/30 12:14:26;;;;;;;7.88;1.90;;;12.50;99.90;;;;;;5013338;28;20042;-62
2023/10/30 12:16:53;;;;;;;4.70;1.30;;;12.50;99.90;;;;;;5013430;28;20092;-62
2023/10/30 12:19:20;;;;;;;8.48;1.75;;;12.60;99.90;;;;;;5012753;28;20046;-62
2023/10/30 12:21:47;;;;;;;7.18;1.33;;;12.60;99.90;;;;;;5013037;28;20046;-62
2023/10/30 12:24:14;;;;;;;7.45;1.95;;;12.60;99.90;;;;;;5013402;28;20164;-62
2023/10/30 12:26:41;;;;;;;7.18;1.58;;;12.70;99.90;;;;;;5013741;28;20049;-62
2023/10/30 12:29:08;;;;;;;6.25;1.70;;;12.80;99.90;;;;;;5013575;28;20057;-62
2023/10/30 12:31:35;;;;;;;7.78;1.90;;;12.90;99.90;;;;;;5013370;28;20042;-62
2023/10/30 12:34:02;;;;;;;8.27;1.65;;;12.90;99.90;;;;;;5012992;28;20072;-62
2023/10/30 12:36:29;;;;;;;8.70;1.88;;;12.90;99.90;;;;;;5013057;28;20045;-62
2023/10/30 12:38:55;;;;;;;6.65;1.70;;;12.90;99.90;;;;;;5012882;28;20212;-62